createdAt,value
2022-08-24T00:00:29.590Z,12.20
2022-08-24T00:02:56.552Z,12.10
2022-08-24T00:05:23.551Z,12.20
2022-08-24T00:07:51.132Z,12.10
2022-08-24T00:10:21.125Z,12.00
2022-08-24T00:12:48.217Z,12.00
2022-08-24T00:15:16.337Z,11.90
2022-08-24T00:17:44.741Z,11.90
2022-08-24T00:20:13.224Z,11.70
2022-08-24T00:22:41.094Z,11.80
2022-08-24T00:25:11.178Z,11.80
2022-08-24T00:27:39.275Z,11.80
2022-08-24T00:30:08.415Z,11.80
2022-08-24T00:32:36.528Z,11.70
2022-08-24T00:35:05.340Z,11.70
2022-08-24T00:37:32.182Z,11.80
2022-08-24T00:39:59.470Z,11.60
2022-08-24T00:42:26.599Z,11.60
2022-08-24T00:44:53.386Z,11.60
2022-08-24T00:47:33.208Z,11.60
2022-08-24T00:50:06.014Z,11.50
2022-08-24T00:52:43.509Z,11.40
2022-08-24T00:55:15.687Z,11.40
2022-08-24T00:57:45.660Z,11.40
2022-08-24T01:00:16.273Z,11.30
2022-08-24T01:02:48.399Z,11.30
2022-08-24T01:05:16.422Z,11.30
2022-08-24T01:07:43.774Z,11.30
2022-08-24T01:10:13.715Z,11.20
2022-08-24T01:12:48.212Z,11.20
2022-08-24T01:15:27.748Z,11.20
2022-08-24T01:18:13.777Z,11.20
2022-08-24T01:20:40.901Z,11.20
2022-08-24T01:23:36.537Z,11.10
2022-08-24T01:26:05.730Z,11.10
2022-08-24T01:28:34.523Z,11.10
2022-08-24T01:31:04.194Z,11.10
2022-08-24T01:33:32.970Z,11.20
2022-08-24T01:36:17.701Z,11.10
2022-08-24T01:38:46.677Z,11.10
2022-08-24T01:41:13.508Z,11.10
2022-08-24T01:43:41.080Z,11.10
2022-08-24T01:46:08.503Z,11.00
2022-08-24T01:48:35.344Z,10.90
2022-08-24T01:51:02.197Z,10.90
2022-08-24T01:53:29.475Z,10.90
2022-08-24T01:55:56.254Z,10.80
2022-08-24T01:58:23.071Z,10.80
2022-08-24T02:00:49.928Z,10.80
2022-08-24T02:03:16.855Z,10.80
2022-08-24T02:05:43.780Z,10.70
2022-08-24T02:08:10.534Z,10.80
2022-08-24T02:10:37.491Z,10.80
2022-08-24T02:13:04.805Z,10.70
2022-08-24T02:15:38.070Z,10.60
2022-08-24T02:18:04.920Z,10.60
2022-08-24T02:20:31.763Z,10.60
2022-08-24T02:22:58.510Z,10.50
2022-08-24T02:25:26.341Z,10.60
2022-08-24T02:27:53.263Z,10.60
2022-08-24T02:30:20.172Z,10.60
2022-08-24T02:32:47.358Z,10.60
2022-08-24T02:35:14.307Z,10.50
2022-08-24T02:37:43.665Z,10.40
2022-08-24T02:40:12.109Z,10.40
2022-08-24T02:42:39.502Z,10.40
2022-08-24T02:45:06.827Z,10.40
2022-08-24T02:47:38.746Z,10.40
2022-08-24T02:50:09.098Z,10.40
2022-08-24T02:52:37.453Z,10.40
2022-08-24T02:55:06.214Z,10.30
2022-08-24T02:57:33.056Z,10.30
2022-08-24T02:59:59.912Z,10.30
2022-08-24T03:02:27.114Z,10.20
2022-08-24T03:04:54.312Z,10.10
2022-08-24T03:07:21.113Z,10.20
2022-08-24T03:09:48.597Z,10.20
2022-08-24T03:12:15.575Z,10.10
2022-08-24T03:14:42.332Z,10.10
2022-08-24T03:17:09.716Z,10.20
2022-08-24T03:19:36.496Z,10.20
2022-08-24T03:22:03.496Z,10.10
2022-08-24T03:24:30.286Z,10.10
2022-08-24T03:26:57.148Z,10.10
2022-08-24T03:29:26.481Z,10.00
2022-08-24T03:31:53.452Z,10.00
2022-08-24T03:34:20.944Z,9.90
2022-08-24T03:36:47.738Z,9.90
2022-08-24T03:39:15.929Z,9.90
2022-08-24T03:41:43.084Z,9.90
2022-08-24T03:44:10.152Z,9.90
2022-08-24T03:46:38.236Z,9.80
2022-08-24T03:49:08.715Z,9.80
2022-08-24T03:51:37.250Z,9.80
2022-08-24T03:54:06.968Z,9.80
2022-08-24T03:56:33.801Z,9.80
2022-08-24T03:59:00.746Z,9.70
2022-08-24T04:01:27.749Z,9.70
2022-08-24T04:03:55.305Z,9.80
2022-08-24T04:06:22.716Z,9.70
2022-08-24T04:08:49.679Z,9.70
2022-08-24T04:11:19.675Z,9.70
2022-08-24T04:13:48.088Z,9.70
2022-08-24T04:16:18.993Z,9.70
2022-08-24T04:18:47.166Z,9.70
2022-08-24T04:21:22.145Z,9.70
2022-08-24T04:23:50.297Z,9.60
2022-08-24T04:26:26.818Z,9.60
2022-08-24T04:29:11.551Z,9.50
2022-08-24T04:31:40.124Z,9.50
2022-08-24T04:34:07.975Z,9.60
2022-08-24T04:36:35.987Z,9.50
2022-08-24T04:39:03.636Z,9.50
2022-08-24T04:41:31.268Z,9.60
2022-08-24T04:44:00.134Z,9.60
2022-08-24T04:46:28.322Z,9.60
2022-08-24T04:48:55.468Z,9.60
2022-08-24T04:51:22.322Z,9.60
2022-08-24T04:53:50.557Z,9.60
2022-08-24T04:56:20.424Z,9.60
2022-08-24T04:58:47.825Z,9.60
2022-08-24T05:01:19.436Z,9.70
2022-08-24T05:03:50.248Z,9.70
2022-08-24T05:06:18.767Z,9.60
2022-08-24T05:08:47.447Z,9.60
2022-08-24T05:11:15.156Z,9.70
2022-08-24T05:13:41.992Z,9.70
2022-08-24T05:16:18.370Z,9.70
2022-08-24T05:18:45.803Z,9.80
2022-08-24T05:21:15.609Z,9.80
2022-08-24T05:23:43.838Z,9.90
2022-08-24T05:26:19.255Z,10.00
2022-08-24T05:28:47.623Z,10.00
2022-08-24T05:31:18.430Z,10.10
2022-08-24T05:33:46.015Z,10.20
2022-08-24T05:36:35.224Z,10.20
2022-08-24T05:39:08.008Z,10.30
2022-08-24T05:41:38.025Z,10.30
2022-08-24T05:44:06.849Z,10.30
2022-08-24T05:46:34.054Z,10.40
2022-08-24T05:49:01.244Z,10.40
2022-08-24T05:51:28.153Z,10.50
2022-08-24T05:53:55.016Z,10.60
2022-08-24T05:56:22.027Z,10.70
2022-08-24T05:58:49.198Z,10.70
2022-08-24T06:01:19.305Z,10.90
2022-08-24T06:03:46.510Z,11.00
2022-08-24T06:06:14.645Z,11.00
2022-08-24T06:08:43.486Z,11.10
2022-08-24T06:11:10.756Z,11.30
2022-08-24T06:13:37.746Z,11.40
2022-08-24T06:16:22.016Z,11.40
2022-08-24T06:18:50.804Z,11.50
2022-08-24T06:21:21.047Z,11.60
2022-08-24T06:23:48.287Z,11.70
2022-08-24T06:26:33.580Z,11.90
2022-08-24T06:29:00.607Z,12.20
2022-08-24T06:31:28.295Z,12.50
2022-08-24T06:33:55.439Z,12.80
2022-08-24T06:36:22.743Z,13.10
2022-08-24T06:38:49.917Z,13.20
2022-08-24T06:41:17.221Z,13.60
2022-08-24T06:43:44.611Z,13.90
2022-08-24T06:46:11.912Z,14.30
2022-08-24T06:48:38.795Z,14.50
2022-08-24T06:51:11.202Z,14.90
2022-08-24T06:53:38.564Z,15.20
2022-08-24T06:56:06.132Z,15.50
2022-08-24T06:58:33.428Z,15.70
2022-08-24T07:01:25.388Z,16.20
2022-08-24T07:03:53.215Z,16.50
2022-08-24T07:06:20.877Z,16.80
2022-08-24T07:08:47.650Z,17.10
2022-08-24T07:11:18.138Z,17.30
2022-08-24T07:13:47.380Z,17.50
2022-08-24T07:16:23.386Z,17.80
2022-08-24T07:18:50.865Z,17.80
2022-08-24T07:21:19.664Z,18.00
2022-08-24T07:23:48.423Z,18.50
2022-08-24T07:26:23.059Z,18.50
2022-08-24T07:29:05.140Z,18.70
2022-08-24T07:31:37.140Z,18.80
2022-08-24T07:34:06.228Z,19.00
2022-08-24T07:36:34.077Z,19.60
2022-08-24T07:39:01.388Z,20.10
2022-08-24T07:42:02.576Z,20.30
2022-08-24T07:44:15.762Z,20.90
2022-08-24T07:46:43.167Z,20.80
2022-08-24T07:49:29.306Z,21.10
2022-08-24T07:51:59.188Z,21.20
2022-08-24T07:54:28.680Z,21.10
2022-08-24T07:56:56.344Z,21.30
2022-08-24T07:59:23.254Z,21.40
2022-08-24T08:01:50.637Z,22.00
2022-08-24T08:04:21.890Z,22.50
2022-08-24T08:06:49.318Z,22.40
2022-08-24T08:09:16.220Z,22.70
2022-08-24T08:11:43.071Z,22.70
2022-08-24T08:14:09.939Z,22.80
2022-08-24T08:16:39.185Z,22.60
2022-08-24T08:19:10.181Z,22.80
2022-08-24T08:22:07.729Z,23.00
2022-08-24T08:24:34.917Z,22.80
2022-08-24T08:27:02.139Z,22.80
2022-08-24T08:29:32.167Z,23.00
2022-08-24T08:31:59.378Z,23.30
2022-08-24T08:34:26.745Z,23.40
2022-08-24T08:36:54.328Z,23.50
2022-08-24T08:39:22.551Z,23.60
2022-08-24T08:42:32.117Z,23.70
2022-08-24T08:45:23.371Z,23.80
2022-08-24T08:48:10.711Z,23.90
2022-08-24T08:51:13.956Z,24.60
2022-08-24T08:54:00.567Z,24.90
2022-08-24T08:56:39.637Z,24.90
2022-08-24T08:59:20.381Z,25.30
2022-08-24T09:01:59.251Z,25.50
2022-08-24T09:04:56.636Z,25.70
2022-08-24T09:07:49.400Z,26.00
2022-08-24T09:10:47.620Z,25.70
2022-08-24T09:13:23.565Z,25.80
2022-08-24T09:16:18.178Z,25.40
2022-08-24T09:19:05.155Z,25.20
2022-08-24T09:21:55.782Z,25.00
2022-08-24T09:24:40.599Z,25.00
2022-08-24T09:27:25.550Z,25.50
2022-08-24T09:30:13.874Z,26.20
2022-08-24T09:33:15.442Z,26.80
2022-08-24T09:35:51.443Z,26.40
2022-08-24T09:38:42.100Z,26.90
2022-08-24T09:41:20.892Z,27.20
2022-08-24T09:44:12.265Z,26.90
2022-08-24T09:47:00.575Z,27.10
2022-08-24T09:49:49.206Z,27.40
2022-08-24T09:52:18.975Z,27.50
2022-08-24T09:55:09.045Z,27.50
2022-08-24T10:00:48.458Z,28.10
2022-08-24T10:03:36.183Z,27.70
2022-08-24T10:06:26.561Z,28.40
2022-08-24T10:09:24.316Z,28.70
2022-08-24T10:11:54.198Z,29.00
2022-08-24T10:14:45.017Z,28.60
2022-08-24T10:17:39.643Z,28.60
2022-08-24T10:20:12.241Z,28.40
2022-08-24T10:23:04.729Z,28.90
2022-08-24T10:25:56.734Z,28.80
2022-08-24T10:28:48.108Z,29.30
2022-08-24T10:32:01.011Z,29.20
2022-08-24T10:34:55.630Z,28.80
2022-08-24T10:37:49.954Z,28.80
2022-08-24T10:40:48.120Z,29.30
2022-08-24T10:43:36.426Z,29.50
2022-08-24T10:46:30.217Z,30.30
2022-08-24T10:49:23.031Z,29.90
2022-08-24T10:52:23.877Z,29.40
2022-08-24T10:54:50.848Z,29.30
2022-08-24T10:57:40.528Z,29.10
2022-08-24T11:00:18.196Z,29.20
2022-08-24T11:03:04.947Z,29.70
2022-08-24T11:05:39.716Z,30.30
2022-08-24T11:08:07.413Z,30.40
2022-08-24T11:10:38.575Z,30.70
2022-08-24T11:13:23.209Z,30.50
2022-08-24T11:15:53.224Z,30.40
2022-08-24T11:18:20.903Z,30.20
2022-08-24T11:20:50.502Z,30.30
2022-08-24T11:23:17.220Z,30.60
2022-08-24T11:26:03.050Z,31.00
2022-08-24T11:28:32.227Z,30.60
2022-08-24T11:31:00.494Z,31.00
2022-08-24T11:33:44.873Z,31.00
2022-08-24T11:36:21.221Z,31.10
2022-08-24T11:38:49.539Z,30.90
2022-08-24T11:41:33.288Z,30.40
2022-08-24T11:44:03.280Z,30.40
2022-08-24T11:46:57.134Z,30.40
2022-08-24T11:49:42.333Z,30.00
2022-08-24T11:52:17.688Z,29.90
2022-08-24T11:55:00.189Z,29.50
2022-08-24T11:58:09.328Z,29.50
2022-08-24T12:00:47.825Z,28.80
2022-08-24T12:03:37.821Z,29.10
2022-08-24T12:06:32.237Z,28.90
2022-08-24T12:09:15.593Z,29.60
2022-08-24T12:11:50.785Z,30.40
2022-08-24T12:14:36.221Z,31.00
2022-08-24T12:17:03.045Z,31.30
2022-08-24T12:19:35.612Z,31.20
2022-08-24T12:22:05.905Z,30.90
2022-08-24T12:24:45.650Z,31.10
2022-08-24T12:27:35.493Z,31.70
2022-08-24T12:30:09.288Z,32.30
2022-08-24T12:32:39.476Z,32.40
2022-08-24T12:35:09.012Z,32.30
2022-08-24T12:37:41.208Z,31.80
2022-08-24T12:40:35.936Z,31.50
2022-08-24T12:43:24.190Z,31.50
2022-08-24T12:45:51.541Z,30.80
2022-08-24T12:48:21.296Z,30.10
2022-08-24T12:51:06.610Z,29.40
2022-08-24T12:53:54.777Z,29.40
2022-08-24T12:56:43.236Z,30.10
2022-08-24T12:59:20.129Z,30.70
2022-08-24T13:01:57.845Z,30.30
2022-08-24T13:04:36.055Z,30.60
2022-08-24T13:07:26.172Z,31.60
2022-08-24T13:09:53.279Z,31.50
2022-08-24T13:12:38.619Z,30.70
2022-08-24T13:15:26.238Z,30.70
2022-08-24T13:17:57.771Z,31.00
2022-08-24T13:20:43.739Z,30.20
2022-08-24T13:23:14.497Z,29.90
2022-08-24T13:25:47.696Z,30.50
2022-08-24T13:28:20.781Z,31.00
2022-08-24T13:31:10.043Z,31.10
2022-08-24T13:34:14.657Z,31.00
2022-08-24T13:37:00.308Z,30.60
2022-08-24T13:39:55.200Z,30.00
2022-08-24T13:42:44.029Z,30.10
2022-08-24T13:45:29.474Z,30.30
2022-08-24T13:48:07.946Z,30.40
2022-08-24T13:50:50.617Z,30.60
2022-08-24T13:53:42.230Z,31.10
2022-08-24T13:56:32.015Z,31.30
2022-08-24T13:59:13.315Z,31.20
2022-08-24T14:02:25.821Z,31.20
2022-08-24T14:05:02.304Z,30.90
2022-08-24T14:07:33.947Z,30.80
2022-08-24T14:10:31.521Z,30.90
2022-08-24T14:13:18.207Z,31.30
2022-08-24T14:15:51.339Z,31.70
2022-08-24T14:18:49.366Z,31.40
2022-08-24T14:21:21.522Z,30.50
2022-08-24T14:24:05.214Z,30.80
2022-08-24T14:26:43.829Z,31.10
2022-08-24T14:29:19.843Z,30.20
2022-08-24T14:32:00.248Z,29.50
2022-08-24T14:34:42.331Z,28.80
2022-08-24T14:37:16.410Z,28.70
2022-08-24T14:39:58.520Z,29.00
2022-08-24T14:42:39.933Z,29.10
2022-08-24T14:45:47.629Z,29.00
2022-08-24T14:48:42.160Z,29.10
2022-08-24T14:51:46.855Z,28.70
2022-08-24T14:54:32.141Z,28.30
2022-08-24T14:57:25.855Z,27.80
2022-08-24T15:00:12.925Z,27.40
2022-08-24T15:02:55.887Z,27.70
2022-08-24T15:05:31.741Z,27.80
2022-08-24T15:08:04.855Z,27.60
2022-08-24T15:10:41.827Z,27.30
2022-08-24T15:13:32.738Z,26.90
2022-08-24T15:16:10.608Z,26.90
2022-08-24T15:19:06.575Z,26.80
2022-08-24T15:22:16.507Z,26.80
2022-08-24T15:24:54.917Z,27.00
2022-08-24T15:27:47.123Z,26.90
2022-08-24T15:30:33.188Z,26.80
2022-08-24T15:33:20.624Z,26.40
2022-08-24T15:36:04.157Z,26.40
2022-08-24T15:38:30.912Z,26.40
2022-08-24T15:41:20.901Z,26.50
2022-08-24T15:43:56.689Z,26.50
2022-08-24T15:46:31.958Z,26.40
2022-08-24T15:49:07.020Z,26.30
2022-08-24T15:51:48.821Z,26.20
2022-08-24T15:54:30.513Z,26.00
2022-08-24T15:57:02.502Z,25.70
2022-08-24T15:59:48.479Z,25.60
2022-08-24T16:02:29.173Z,25.50
2022-08-24T16:05:35.045Z,25.50
2022-08-24T16:08:04.947Z,25.50
2022-08-24T16:10:42.928Z,25.50
2022-08-24T16:13:23.921Z,25.40
2022-08-24T16:15:59.527Z,25.30
2022-08-24T16:18:49.517Z,25.30
2022-08-24T16:21:26.883Z,25.20
2022-08-24T16:24:12.917Z,25.10
2022-08-24T16:26:45.863Z,25.10
2022-08-24T16:29:37.530Z,25.00
2022-08-24T16:32:33.677Z,25.00
2022-08-24T16:35:09.001Z,25.00
2022-08-24T16:37:37.111Z,25.00
2022-08-24T16:40:05.490Z,24.90
2022-08-24T16:42:32.991Z,24.90
2022-08-24T16:45:00.675Z,24.80
2022-08-24T16:47:28.606Z,24.80
2022-08-24T16:49:55.827Z,24.70
2022-08-24T16:52:22.900Z,24.70
2022-08-24T16:54:49.940Z,24.60
2022-08-24T16:57:23.445Z,24.60
2022-08-24T16:59:52.260Z,24.60
2022-08-24T17:02:20.484Z,24.50
2022-08-24T17:04:47.279Z,24.40
2022-08-24T17:07:18.087Z,24.50
2022-08-24T17:09:46.941Z,24.40
2022-08-24T17:12:14.030Z,24.40
2022-08-24T17:14:41.344Z,24.40
2022-08-24T17:17:11.719Z,24.40
2022-08-24T17:19:39.409Z,24.40
2022-08-24T17:22:14.332Z,24.20
2022-08-24T17:24:43.686Z,24.20
2022-08-24T17:27:11.091Z,24.10
2022-08-24T17:29:37.958Z,24.00
2022-08-24T17:32:05.237Z,24.00
2022-08-24T17:34:32.648Z,23.90
2022-08-24T17:37:00.033Z,23.70
2022-08-24T17:39:27.170Z,23.60
2022-08-24T17:41:56.040Z,23.50
2022-08-24T17:44:27.549Z,23.30
2022-08-24T17:46:57.784Z,23.30
2022-08-24T17:49:25.993Z,23.20
2022-08-24T17:51:54.889Z,23.10
2022-08-24T17:54:22.768Z,23.10
2022-08-24T17:56:51.051Z,23.00
2022-08-24T17:59:27.945Z,22.90
2022-08-24T18:01:58.258Z,22.80
2022-08-24T18:04:28.137Z,22.70
2022-08-24T18:06:56.859Z,22.60
2022-08-24T18:09:35.105Z,22.50
2022-08-24T18:12:05.720Z,22.30
2022-08-24T18:14:34.556Z,22.20
2022-08-24T18:17:05.467Z,22.20
2022-08-24T18:19:34.088Z,22.00
2022-08-24T18:22:01.952Z,21.90
2022-08-24T18:24:32.549Z,21.80
2022-08-24T18:27:01.955Z,21.60
2022-08-24T18:29:33.627Z,21.50
2022-08-24T18:32:01.178Z,21.30
2022-08-24T18:34:28.584Z,21.20
2022-08-24T18:36:55.722Z,21.10
2022-08-24T18:39:23.303Z,21.00
2022-08-24T18:41:51.339Z,20.90
2022-08-24T18:44:20.656Z,20.80
2022-08-24T18:46:48.880Z,20.70
2022-08-24T18:49:17.371Z,20.60
2022-08-24T18:51:47.991Z,20.50
2022-08-24T18:54:20.853Z,20.40
2022-08-24T18:56:48.284Z,20.30
2022-08-24T18:59:16.448Z,20.10
2022-08-24T19:02:02.904Z,20.10
2022-08-24T19:04:32.900Z,19.90
2022-08-24T19:07:00.820Z,19.70
2022-08-24T19:09:32.006Z,19.60
2022-08-24T19:12:01.097Z,19.50
2022-08-24T19:14:28.033Z,19.40
2022-08-24T19:16:55.345Z,19.30
2022-08-24T19:19:22.452Z,19.30
2022-08-24T19:21:49.808Z,19.20
2022-08-24T19:24:20.865Z,19.20
2022-08-24T19:26:47.647Z,19.10
2022-08-24T19:29:24.479Z,19.00
2022-08-24T19:32:03.164Z,19.00
2022-08-24T19:34:32.027Z,18.90
2022-08-24T19:36:58.843Z,18.80
2022-08-24T19:39:31.827Z,18.70
2022-08-24T19:41:58.797Z,18.60
2022-08-24T19:44:51.863Z,18.60
2022-08-24T19:47:18.877Z,18.50
2022-08-24T19:49:45.729Z,18.40
2022-08-24T19:52:13.545Z,18.40
2022-08-24T19:54:44.452Z,18.40
2022-08-24T19:57:29.088Z,18.30
2022-08-24T20:00:21.391Z,18.20
2022-08-24T20:02:50.607Z,18.10
2022-08-24T20:05:18.928Z,18.10
2022-08-24T20:07:46.716Z,18.00
2022-08-24T20:10:15.303Z,17.90
2022-08-24T20:12:42.436Z,17.90
2022-08-24T20:15:09.980Z,17.80
2022-08-24T20:17:37.059Z,17.80
2022-08-24T20:20:05.820Z,17.70
2022-08-24T20:22:32.651Z,17.70
2022-08-24T20:24:59.440Z,17.60
2022-08-24T20:27:27.814Z,17.60
2022-08-24T20:29:55.456Z,17.50
2022-08-24T20:32:22.876Z,17.40
2022-08-24T20:34:49.998Z,17.40
2022-08-24T20:37:25.948Z,17.40
2022-08-24T20:39:56.234Z,17.30
2022-08-24T20:42:25.466Z,17.30
2022-08-24T20:44:53.809Z,17.20
2022-08-24T20:47:21.644Z,17.10
2022-08-24T20:49:49.244Z,17.00
2022-08-24T20:52:16.281Z,17.00
2022-08-24T20:54:43.415Z,17.00
2022-08-24T20:57:15.450Z,16.90
2022-08-24T20:59:42.396Z,16.90
2022-08-24T21:02:09.291Z,16.80
2022-08-24T21:04:36.831Z,16.80
2022-08-24T21:07:03.920Z,16.70
2022-08-24T21:09:30.782Z,16.70
2022-08-24T21:11:57.632Z,16.70
2022-08-24T21:14:24.398Z,16.60
2022-08-24T21:16:51.362Z,16.60
2022-08-24T21:19:18.171Z,16.60
2022-08-24T21:21:46.905Z,16.50
2022-08-24T21:24:15.581Z,16.50
2022-08-24T21:26:42.550Z,16.50
2022-08-24T21:29:11.042Z,16.40
2022-08-24T21:31:38.959Z,16.30
2022-08-24T21:34:24.842Z,16.30
2022-08-24T21:36:54.201Z,16.30
2022-08-24T21:39:21.337Z,16.20
2022-08-24T21:41:48.107Z,16.20
2022-08-24T21:44:14.940Z,16.20
2022-08-24T21:46:41.946Z,16.20
2022-08-24T21:49:12.048Z,16.10
2022-08-24T21:51:39.740Z,16.00
2022-08-24T21:54:06.641Z,16.00
2022-08-24T21:56:34.386Z,16.00
2022-08-24T21:59:01.416Z,16.00
2022-08-24T22:01:28.781Z,15.90
2022-08-24T22:03:55.890Z,15.90
2022-08-24T22:06:22.809Z,15.90
2022-08-24T22:08:49.782Z,16.00
2022-08-24T22:11:19.012Z,15.80
2022-08-24T22:13:47.084Z,15.80
2022-08-24T22:16:13.981Z,15.80
2022-08-24T22:18:41.195Z,15.70
2022-08-24T22:21:12.935Z,15.70
2022-08-24T22:23:40.943Z,15.60
2022-08-24T22:26:08.407Z,15.50
2022-08-24T22:28:37.956Z,15.60
2022-08-24T22:31:18.781Z,15.60
2022-08-24T22:33:45.969Z,15.50
2022-08-24T22:36:14.255Z,15.50
2022-08-24T22:38:41.212Z,15.50
2022-08-24T22:41:09.153Z,15.30
2022-08-24T22:43:54.561Z,15.40
2022-08-24T22:46:22.729Z,15.50
2022-08-24T22:48:49.919Z,15.40
2022-08-24T22:51:16.793Z,15.40
2022-08-24T22:53:43.594Z,15.30
2022-08-24T22:56:19.169Z,15.20
2022-08-24T22:58:46.912Z,15.20
2022-08-24T23:01:33.006Z,15.20
2022-08-24T23:04:02.231Z,15.20
2022-08-24T23:06:29.286Z,15.10
2022-08-24T23:08:56.822Z,15.10
2022-08-24T23:11:26.747Z,15.00
2022-08-24T23:13:56.431Z,15.00
2022-08-24T23:16:25.181Z,15.00
2022-08-24T23:19:11.019Z,15.00
2022-08-24T23:21:38.105Z,14.90
2022-08-24T23:24:05.556Z,14.90
2022-08-24T23:26:35.055Z,14.90
2022-08-24T23:29:03.545Z,14.90
2022-08-24T23:31:31.312Z,14.90
2022-08-24T23:33:58.989Z,14.90
2022-08-24T23:36:28.127Z,14.90
2022-08-24T23:38:59.276Z,14.80
2022-08-24T23:41:29.530Z,14.70
2022-08-24T23:43:59.740Z,14.70
2022-08-24T23:46:26.990Z,14.60
2022-08-24T23:48:55.847Z,14.60
2022-08-24T23:51:24.027Z,14.60
2022-08-24T23:53:51.897Z,14.60
2022-08-24T23:56:32.086Z,14.60
2022-08-24T23:59:01.733Z,14.50
